sensor_id;sensor_type;location;lat;lon;timestamp;P1;durP1;ratioP1;P2;durP2;ratioP2
60851;SDS011;48553;50.766;2.900;2023-08-30T00:02:01;5.43;;;2.20;;
60851;SDS011;48553;50.766;2.900;2023-08-30T00:05:03;4.68;;;2.60;;
60851;SDS011;48553;50.766;2.900;2023-08-30T00:08:04;4.55;;;2.30;;
60851;SDS011;48553;50.766;2.900;2023-08-30T00:11:04;4.80;;;2.30;;
60851;SDS011;48553;50.766;2.900;2023-08-30T00:14:20;4.18;;;2.17;;
60851;SDS011;48553;50.766;2.900;2023-08-30T00:17:20;5.00;;;2.70;;
60851;SDS011;48553;50.766;2.900;2023-08-30T00:20:22;5.85;;;2.47;;
60851;SDS011;48553;50.766;2.900;2023-08-30T00:23:23;4.88;;;2.38;;
60851;SDS011;48553;50.766;2.900;2023-08-30T00:26:23;4.20;;;2.13;;
60851;SDS011;48553;50.766;2.900;2023-08-30T00:29:24;5.45;;;2.22;;
60851;SDS011;48553;50.766;2.900;2023-08-30T00:32:24;4.28;;;2.42;;
60851;SDS011;48553;50.766;2.900;2023-08-30T00:35:24;3.25;;;2.10;;
60851;SDS011;48553;50.766;2.900;2023-08-30T00:38:28;3.75;;;2.20;;
60851;SDS011;48553;50.766;2.900;2023-08-30T00:41:28;4.95;;;2.10;;
60851;SDS011;48553;50.766;2.900;2023-08-30T00:44:29;4.43;;;2.13;;
60851;SDS011;48553;50.766;2.900;2023-08-30T00:47:29;4.35;;;2.05;;
60851;SDS011;48553;50.766;2.900;2023-08-30T00:50:30;6.50;;;2.47;;
60851;SDS011;48553;50.766;2.900;2023-08-30T00:53:30;4.00;;;2.22;;
60851;SDS011;48553;50.766;2.900;2023-08-30T00:56:31;3.65;;;2.20;;
60851;SDS011;48553;50.766;2.900;2023-08-30T00:59:32;5.78;;;1.98;;
60851;SDS011;48553;50.766;2.900;2023-08-30T01:02:33;4.40;;;2.15;;
60851;SDS011;48553;50.766;2.900;2023-08-30T01:05:34;3.70;;;2.05;;
60851;SDS011;48553;50.766;2.900;2023-08-30T01:08:35;4.65;;;2.10;;
60851;SDS011;48553;50.766;2.900;2023-08-30T01:11:48;4.82;;;2.00;;
60851;SDS011;48553;50.766;2.900;2023-08-30T01:15:00;3.83;;;1.77;;
60851;SDS011;48553;50.766;2.900;2023-08-30T01:18:15;4.88;;;1.80;;
60851;SDS011;48553;50.766;2.900;2023-08-30T01:21:24;3.20;;;1.67;;
60851;SDS011;48553;50.766;2.900;2023-08-30T01:24:35;3.83;;;1.90;;
60851;SDS011;48553;50.766;2.900;2023-08-30T01:27:42;3.72;;;1.80;;
60851;SDS011;48553;50.766;2.900;2023-08-30T01:30:45;6.10;;;1.98;;
60851;SDS011;48553;50.766;2.900;2023-08-30T01:33:47;3.30;;;1.70;;
60851;SDS011;48553;50.766;2.900;2023-08-30T01:36:48;3.70;;;1.70;;
60851;SDS011;48553;50.766;2.900;2023-08-30T01:39:49;3.55;;;1.65;;
60851;SDS011;48553;50.766;2.900;2023-08-30T01:42:50;3.42;;;1.98;;
60851;SDS011;48553;50.766;2.900;2023-08-30T01:45:51;4.25;;;1.80;;
60851;SDS011;48553;50.766;2.900;2023-08-30T01:48:52;3.55;;;1.73;;
60851;SDS011;48553;50.766;2.900;2023-08-30T01:51:54;3.92;;;1.70;;
60851;SDS011;48553;50.766;2.900;2023-08-30T01:54:55;4.25;;;2.00;;
60851;SDS011;48553;50.766;2.900;2023-08-30T01:57:58;4.40;;;1.75;;
60851;SDS011;48553;50.766;2.900;2023-08-30T02:00:59;3.70;;;1.65;;
60851;SDS011;48553;50.766;2.900;2023-08-30T02:04:00;4.18;;;1.70;;
60851;SDS011;48553;50.766;2.900;2023-08-30T02:07:02;4.32;;;1.60;;
60851;SDS011;48553;50.766;2.900;2023-08-30T02:10:08;3.55;;;1.63;;
60851;SDS011;48553;50.766;2.900;2023-08-30T02:13:11;4.43;;;1.80;;
60851;SDS011;48553;50.766;2.900;2023-08-30T02:16:13;4.35;;;2.00;;
60851;SDS011;48553;50.766;2.900;2023-08-30T02:19:14;4.20;;;1.88;;
60851;SDS011;48553;50.766;2.900;2023-08-30T02:22:20;3.88;;;1.75;;
60851;SDS011;48553;50.766;2.900;2023-08-30T02:25:21;5.00;;;1.90;;
60851;SDS011;48553;50.766;2.900;2023-08-30T02:28:24;4.13;;;1.80;;
60851;SDS011;48553;50.766;2.900;2023-08-30T02:31:24;4.50;;;1.83;;
60851;SDS011;48553;50.766;2.900;2023-08-30T02:34:24;4.22;;;1.88;;
60851;SDS011;48553;50.766;2.900;2023-08-30T02:37:25;4.43;;;1.70;;
60851;SDS011;48553;50.766;2.900;2023-08-30T02:40:25;3.85;;;1.83;;
60851;SDS011;48553;50.766;2.900;2023-08-30T02:43:26;3.03;;;1.65;;
60851;SDS011;48553;50.766;2.900;2023-08-30T02:46:26;4.63;;;1.98;;
60851;SDS011;48553;50.766;2.900;2023-08-30T02:49:26;4.28;;;2.08;;
60851;SDS011;48553;50.766;2.900;2023-08-30T02:52:27;2.72;;;1.65;;
60851;SDS011;48553;50.766;2.900;2023-08-30T02:55:27;4.95;;;2.28;;
60851;SDS011;48553;50.766;2.900;2023-08-30T02:58:28;3.58;;;1.85;;
60851;SDS011;48553;50.766;2.900;2023-08-30T03:01:28;6.47;;;2.15;;
60851;SDS011;48553;50.766;2.900;2023-08-30T03:04:28;5.47;;;1.88;;
60851;SDS011;48553;50.766;2.900;2023-08-30T03:07:29;4.20;;;2.22;;
60851;SDS011;48553;50.766;2.900;2023-08-30T03:10:29;4.68;;;2.10;;
60851;SDS011;48553;50.766;2.900;2023-08-30T03:13:30;4.00;;;2.00;;
60851;SDS011;48553;50.766;2.900;2023-08-30T03:16:30;4.63;;;2.40;;
60851;SDS011;48553;50.766;2.900;2023-08-30T03:19:31;5.22;;;2.80;;
60851;SDS011;48553;50.766;2.900;2023-08-30T03:22:31;5.47;;;2.85;;
60851;SDS011;48553;50.766;2.900;2023-08-30T03:25:32;6.57;;;2.90;;
60851;SDS011;48553;50.766;2.900;2023-08-30T03:28:32;6.25;;;2.63;;
60851;SDS011;48553;50.766;2.900;2023-08-30T03:31:33;5.13;;;3.05;;
60851;SDS011;48553;50.766;2.900;2023-08-30T03:34:33;4.85;;;2.83;;
60851;SDS011;48553;50.766;2.900;2023-08-30T03:37:34;5.03;;;3.00;;
60851;SDS011;48553;50.766;2.900;2023-08-30T03:40:34;5.80;;;2.97;;
60851;SDS011;48553;50.766;2.900;2023-08-30T03:43:34;9.05;;;3.13;;
60851;SDS011;48553;50.766;2.900;2023-08-30T03:46:35;5.40;;;3.40;;
60851;SDS011;48553;50.766;2.900;2023-08-30T03:49:35;6.25;;;3.30;;
60851;SDS011;48553;50.766;2.900;2023-08-30T03:52:35;5.38;;;3.00;;
60851;SDS011;48553;50.766;2.900;2023-08-30T03:55:36;5.90;;;3.00;;
60851;SDS011;48553;50.766;2.900;2023-08-30T03:58:36;7.07;;;3.60;;
60851;SDS011;48553;50.766;2.900;2023-08-30T04:01:37;7.18;;;4.00;;
60851;SDS011;48553;50.766;2.900;2023-08-30T04:04:38;5.88;;;3.50;;
60851;SDS011;48553;50.766;2.900;2023-08-30T04:07:38;6.75;;;3.58;;
60851;SDS011;48553;50.766;2.900;2023-08-30T04:10:39;6.35;;;3.30;;
60851;SDS011;48553;50.766;2.900;2023-08-30T04:13:42;6.40;;;3.30;;
60851;SDS011;48553;50.766;2.900;2023-08-30T04:16:42;6.47;;;3.50;;
60851;SDS011;48553;50.766;2.900;2023-08-30T04:19:43;8.25;;;3.80;;
60851;SDS011;48553;50.766;2.900;2023-08-30T04:22:43;6.25;;;3.17;;
60851;SDS011;48553;50.766;2.900;2023-08-30T04:25:44;5.47;;;3.05;;
60851;SDS011;48553;50.766;2.900;2023-08-30T04:28:44;6.75;;;3.40;;
60851;SDS011;48553;50.766;2.900;2023-08-30T04:31:45;5.78;;;3.13;;
60851;SDS011;48553;50.766;2.900;2023-08-30T04:34:45;5.80;;;3.42;;
60851;SDS011;48553;50.766;2.900;2023-08-30T04:37:46;4.80;;;3.25;;
60851;SDS011;48553;50.766;2.900;2023-08-30T04:40:48;5.72;;;3.30;;
60851;SDS011;48553;50.766;2.900;2023-08-30T04:43:48;5.45;;;3.25;;
60851;SDS011;48553;50.766;2.900;2023-08-30T04:46:49;6.35;;;3.20;;
60851;SDS011;48553;50.766;2.900;2023-08-30T04:49:52;8.38;;;3.75;;
60851;SDS011;48553;50.766;2.900;2023-08-30T04:52:52;7.00;;;3.60;;
60851;SDS011;48553;50.766;2.900;2023-08-30T04:55:53;5.75;;;3.30;;
60851;SDS011;48553;50.766;2.900;2023-08-30T04:58:53;5.65;;;3.40;;
60851;SDS011;48553;50.766;2.900;2023-08-30T05:01:54;6.25;;;3.15;;
60851;SDS011;48553;50.766;2.900;2023-08-30T05:04:54;5.35;;;3.45;;
60851;SDS011;48553;50.766;2.900;2023-08-30T05:07:55;5.63;;;3.67;;
60851;SDS011;48553;50.766;2.900;2023-08-30T05:10:55;5.63;;;3.47;;
60851;SDS011;48553;50.766;2.900;2023-08-30T05:13:56;6.80;;;3.80;;
60851;SDS011;48553;50.766;2.900;2023-08-30T05:16:56;7.30;;;4.10;;
60851;SDS011;48553;50.766;2.900;2023-08-30T05:19:57;6.40;;;4.00;;
60851;SDS011;48553;50.766;2.900;2023-08-30T05:22:57;5.05;;;3.40;;
60851;SDS011;48553;50.766;2.900;2023-08-30T05:25:58;6.05;;;3.70;;
60851;SDS011;48553;50.766;2.900;2023-08-30T05:28:58;5.75;;;3.80;;
60851;SDS011;48553;50.766;2.900;2023-08-30T05:31:58;5.32;;;3.63;;
60851;SDS011;48553;50.766;2.900;2023-08-30T05:34:59;5.90;;;3.72;;
60851;SDS011;48553;50.766;2.900;2023-08-30T05:37:59;5.78;;;3.47;;
60851;SDS011;48553;50.766;2.900;2023-08-30T05:41:00;6.18;;;3.58;;
60851;SDS011;48553;50.766;2.900;2023-08-30T05:44:00;6.20;;;3.55;;
60851;SDS011;48553;50.766;2.900;2023-08-30T05:47:01;5.85;;;3.10;;
60851;SDS011;48553;50.766;2.900;2023-08-30T05:50:01;5.55;;;3.30;;
60851;SDS011;48553;50.766;2.900;2023-08-30T05:53:02;6.05;;;3.28;;
60851;SDS011;48553;50.766;2.900;2023-08-30T05:56:04;5.03;;;3.30;;
60851;SDS011;48553;50.766;2.900;2023-08-30T05:59:04;4.32;;;2.85;;
60851;SDS011;48553;50.766;2.900;2023-08-30T06:02:05;4.28;;;2.65;;
60851;SDS011;48553;50.766;2.900;2023-08-30T06:05:05;4.13;;;2.65;;
60851;SDS011;48553;50.766;2.900;2023-08-30T06:08:06;5.65;;;2.55;;
60851;SDS011;48553;50.766;2.900;2023-08-30T06:11:07;3.92;;;2.38;;
60851;SDS011;48553;50.766;2.900;2023-08-30T06:14:08;5.05;;;2.40;;
60851;SDS011;48553;50.766;2.900;2023-08-30T06:17:08;3.85;;;2.30;;
60851;SDS011;48553;50.766;2.900;2023-08-30T06:20:09;4.25;;;2.30;;
60851;SDS011;48553;50.766;2.900;2023-08-30T06:23:09;4.47;;;2.22;;
60851;SDS011;48553;50.766;2.900;2023-08-30T06:26:11;4.53;;;2.38;;
60851;SDS011;48553;50.766;2.900;2023-08-30T06:29:12;5.18;;;2.75;;
60851;SDS011;48553;50.766;2.900;2023-08-30T06:32:12;4.32;;;2.70;;
60851;SDS011;48553;50.766;2.900;2023-08-30T06:35:12;4.10;;;2.85;;
60851;SDS011;48553;50.766;2.900;2023-08-30T06:38:13;4.63;;;2.78;;
60851;SDS011;48553;50.766;2.900;2023-08-30T06:41:14;5.07;;;2.88;;
60851;SDS011;48553;50.766;2.900;2023-08-30T06:44:14;4.82;;;3.17;;
60851;SDS011;48553;50.766;2.900;2023-08-30T06:47:15;5.32;;;2.85;;
60851;SDS011;48553;50.766;2.900;2023-08-30T06:50:16;5.20;;;3.15;;
60851;SDS011;48553;50.766;2.900;2023-08-30T06:53:16;5.93;;;3.58;;
60851;SDS011;48553;50.766;2.900;2023-08-30T06:56:17;5.43;;;3.60;;
60851;SDS011;48553;50.766;2.900;2023-08-30T06:59:17;5.55;;;3.70;;
60851;SDS011;48553;50.766;2.900;2023-08-30T07:02:17;6.05;;;3.60;;
60851;SDS011;48553;50.766;2.900;2023-08-30T07:05:18;4.82;;;3.17;;
60851;SDS011;48553;50.766;2.900;2023-08-30T07:08:18;5.18;;;3.45;;
60851;SDS011;48553;50.766;2.900;2023-08-30T07:11:19;6.53;;;3.40;;
60851;SDS011;48553;50.766;2.900;2023-08-30T07:14:19;6.25;;;3.58;;
60851;SDS011;48553;50.766;2.900;2023-08-30T07:17:20;6.65;;;3.35;;
60851;SDS011;48553;50.766;2.900;2023-08-30T07:20:20;7.28;;;3.33;;
60851;SDS011;48553;50.766;2.900;2023-08-30T07:23:21;6.78;;;3.58;;
60851;SDS011;48553;50.766;2.900;2023-08-30T07:26:21;7.28;;;3.25;;
60851;SDS011;48553;50.766;2.900;2023-08-30T07:29:22;6.85;;;3.55;;
60851;SDS011;48553;50.766;2.900;2023-08-30T07:32:22;7.35;;;3.97;;
60851;SDS011;48553;50.766;2.900;2023-08-30T07:35:23;7.38;;;3.50;;
60851;SDS011;48553;50.766;2.900;2023-08-30T07:38:23;7.20;;;3.60;;
60851;SDS011;48553;50.766;2.900;2023-08-30T07:41:24;8.40;;;3.70;;
60851;SDS011;48553;50.766;2.900;2023-08-30T07:44:24;7.60;;;3.28;;
60851;SDS011;48553;50.766;2.900;2023-08-30T07:47:24;9.13;;;3.03;;
60851;SDS011;48553;50.766;2.900;2023-08-30T07:50:25;8.60;;;3.20;;
60851;SDS011;48553;50.766;2.900;2023-08-30T07:53:26;7.95;;;3.10;;
60851;SDS011;48553;50.766;2.900;2023-08-30T07:56:26;7.55;;;3.13;;
60851;SDS011;48553;50.766;2.900;2023-08-30T07:59:26;8.68;;;3.10;;
60851;SDS011;48553;50.766;2.900;2023-08-30T08:02:27;7.15;;;2.90;;
60851;SDS011;48553;50.766;2.900;2023-08-30T08:05:27;6.70;;;2.78;;
60851;SDS011;48553;50.766;2.900;2023-08-30T08:08:27;8.50;;;2.70;;
60851;SDS011;48553;50.766;2.900;2023-08-30T08:11:28;7.65;;;2.85;;
60851;SDS011;48553;50.766;2.900;2023-08-30T08:14:29;8.52;;;2.70;;
60851;SDS011;48553;50.766;2.900;2023-08-30T08:17:29;8.68;;;2.58;;
60851;SDS011;48553;50.766;2.900;2023-08-30T08:20:30;7.63;;;2.55;;
60851;SDS011;48553;50.766;2.900;2023-08-30T08:23:30;4.45;;;1.85;;
60851;SDS011;48553;50.766;2.900;2023-08-30T08:26:31;8.13;;;2.30;;
60851;SDS011;48553;50.766;2.900;2023-08-30T08:29:31;10.95;;;2.40;;
60851;SDS011;48553;50.766;2.900;2023-08-30T08:32:32;6.10;;;2.30;;
60851;SDS011;48553;50.766;2.900;2023-08-30T08:35:33;7.82;;;2.20;;
60851;SDS011;48553;50.766;2.900;2023-08-30T08:38:33;6.63;;;1.95;;
60851;SDS011;48553;50.766;2.900;2023-08-30T08:41:43;10.60;;;2.38;;
60851;SDS011;48553;50.766;2.900;2023-08-30T08:44:46;6.85;;;2.30;;
60851;SDS011;48553;50.766;2.900;2023-08-30T08:47:50;7.38;;;1.95;;
60851;SDS011;48553;50.766;2.900;2023-08-30T08:50:51;6.72;;;2.40;;
60851;SDS011;48553;50.766;2.900;2023-08-30T08:53:52;7.80;;;2.15;;
60851;SDS011;48553;50.766;2.900;2023-08-30T08:56:55;6.03;;;2.15;;
60851;SDS011;48553;50.766;2.900;2023-08-30T08:59:56;9.05;;;2.75;;
60851;SDS011;48553;50.766;2.900;2023-08-30T09:02:57;7.57;;;4.03;;
60851;SDS011;48553;50.766;2.900;2023-08-30T09:05:58;8.32;;;2.58;;
60851;SDS011;48553;50.766;2.900;2023-08-30T09:09:01;7.35;;;2.42;;
60851;SDS011;48553;50.766;2.900;2023-08-30T09:12:03;9.98;;;3.10;;
60851;SDS011;48553;50.766;2.900;2023-08-30T09:15:04;9.75;;;2.67;;
60851;SDS011;48553;50.766;2.900;2023-08-30T09:18:13;8.15;;;2.55;;
60851;SDS011;48553;50.766;2.900;2023-08-30T09:21:15;8.73;;;2.78;;
60851;SDS011;48553;50.766;2.900;2023-08-30T09:24:15;7.55;;;2.63;;
60851;SDS011;48553;50.766;2.900;2023-08-30T09:27:15;10.63;;;2.42;;
60851;SDS011;48553;50.766;2.900;2023-08-30T09:30:23;8.40;;;2.47;;
60851;SDS011;48553;50.766;2.900;2023-08-30T09:33:30;9.77;;;2.53;;
60851;SDS011;48553;50.766;2.900;2023-08-30T09:36:35;5.88;;;2.40;;
60851;SDS011;48553;50.766;2.900;2023-08-30T09:39:47;8.45;;;2.58;;
60851;SDS011;48553;50.766;2.900;2023-08-30T09:42:49;8.75;;;2.80;;
60851;SDS011;48553;50.766;2.900;2023-08-30T09:45:50;10.10;;;2.63;;
60851;SDS011;48553;50.766;2.900;2023-08-30T09:48:52;7.07;;;2.55;;
60851;SDS011;48553;50.766;2.900;2023-08-30T09:51:54;6.93;;;2.30;;
60851;SDS011;48553;50.766;2.900;2023-08-30T09:54:55;9.13;;;2.35;;
60851;SDS011;48553;50.766;2.900;2023-08-30T09:57:56;6.25;;;2.10;;
60851;SDS011;48553;50.766;2.900;2023-08-30T10:00:56;7.07;;;2.10;;
60851;SDS011;48553;50.766;2.900;2023-08-30T10:03:58;6.60;;;1.95;;
60851;SDS011;48553;50.766;2.900;2023-08-30T10:07:01;7.60;;;1.98;;
60851;SDS011;48553;50.766;2.900;2023-08-30T10:10:04;8.75;;;2.00;;
60851;SDS011;48553;50.766;2.900;2023-08-30T10:13:05;6.68;;;2.05;;
60851;SDS011;48553;50.766;2.900;2023-08-30T10:16:06;5.45;;;1.90;;
60851;SDS011;48553;50.766;2.900;2023-08-30T10:19:24;7.32;;;2.00;;
60851;SDS011;48553;50.766;2.900;2023-08-30T10:22:27;5.10;;;1.92;;
60851;SDS011;48553;50.766;2.900;2023-08-30T10:25:28;9.38;;;2.28;;
60851;SDS011;48553;50.766;2.900;2023-08-30T10:28:31;7.47;;;1.80;;
60851;SDS011;48553;50.766;2.900;2023-08-30T10:31:34;8.07;;;2.10;;
60851;SDS011;48553;50.766;2.900;2023-08-30T10:34:35;8.55;;;2.50;;
60851;SDS011;48553;50.766;2.900;2023-08-30T10:37:36;8.93;;;2.70;;
60851;SDS011;48553;50.766;2.900;2023-08-30T10:40:44;7.00;;;2.40;;
60851;SDS011;48553;50.766;2.900;2023-08-30T10:43:48;8.60;;;2.60;;
60851;SDS011;48553;50.766;2.900;2023-08-30T10:46:54;5.78;;;2.03;;
60851;SDS011;48553;50.766;2.900;2023-08-30T10:49:56;5.47;;;2.22;;
60851;SDS011;48553;50.766;2.900;2023-08-30T10:52:57;6.65;;;2.00;;
60851;SDS011;48553;50.766;2.900;2023-08-30T10:56:31;4.70;;;2.10;;
60851;SDS011;48553;50.766;2.900;2023-08-30T10:59:29;5.78;;;2.03;;
60851;SDS011;48553;50.766;2.900;2023-08-30T11:02:29;7.25;;;1.77;;
60851;SDS011;48553;50.766;2.900;2023-08-30T11:05:30;9.15;;;1.95;;
60851;SDS011;48553;50.766;2.900;2023-08-30T11:08:31;3.95;;;1.75;;
60851;SDS011;48553;50.766;2.900;2023-08-30T11:11:31;4.97;;;1.80;;
60851;SDS011;48553;50.766;2.900;2023-08-30T11:14:32;5.32;;;2.00;;
60851;SDS011;48553;50.766;2.900;2023-08-30T11:17:32;4.35;;;1.85;;
60851;SDS011;48553;50.766;2.900;2023-08-30T11:20:33;6.18;;;1.95;;
60851;SDS011;48553;50.766;2.900;2023-08-30T11:23:33;5.80;;;1.50;;
60851;SDS011;48553;50.766;2.900;2023-08-30T11:26:34;4.03;;;1.50;;
60851;SDS011;48553;50.766;2.900;2023-08-30T11:29:34;4.65;;;1.52;;
60851;SDS011;48553;50.766;2.900;2023-08-30T11:32:35;6.07;;;1.80;;
60851;SDS011;48553;50.766;2.900;2023-08-30T11:35:37;4.75;;;1.67;;
60851;SDS011;48553;50.766;2.900;2023-08-30T11:38:38;4.78;;;1.75;;
60851;SDS011;48553;50.766;2.900;2023-08-30T11:41:40;7.13;;;1.80;;
60851;SDS011;48553;50.766;2.900;2023-08-30T11:44:42;5.38;;;1.52;;
60851;SDS011;48553;50.766;2.900;2023-08-30T11:47:44;4.60;;;1.63;;
60851;SDS011;48553;50.766;2.900;2023-08-30T11:50:44;5.10;;;1.70;;
60851;SDS011;48553;50.766;2.900;2023-08-30T11:53:45;6.57;;;1.48;;
60851;SDS011;48553;50.766;2.900;2023-08-30T11:56:46;4.18;;;1.60;;
60851;SDS011;48553;50.766;2.900;2023-08-30T11:59:47;4.30;;;1.58;;
60851;SDS011;48553;50.766;2.900;2023-08-30T12:02:48;3.65;;;1.45;;
60851;SDS011;48553;50.766;2.900;2023-08-30T12:05:49;6.47;;;1.70;;
60851;SDS011;48553;50.766;2.900;2023-08-30T12:08:56;4.93;;;1.40;;
60851;SDS011;48553;50.766;2.900;2023-08-30T12:12:09;4.72;;;1.50;;
60851;SDS011;48553;50.766;2.900;2023-08-30T12:15:11;5.15;;;1.45;;
60851;SDS011;48553;50.766;2.900;2023-08-30T12:18:12;4.45;;;1.38;;
60851;SDS011;48553;50.766;2.900;2023-08-30T12:21:13;4.13;;;1.55;;
60851;SDS011;48553;50.766;2.900;2023-08-30T12:24:14;4.03;;;1.77;;
60851;SDS011;48553;50.766;2.900;2023-08-30T12:27:14;3.25;;;1.40;;
60851;SDS011;48553;50.766;2.900;2023-08-30T12:30:15;3.78;;;1.60;;
60851;SDS011;48553;50.766;2.900;2023-08-30T12:33:16;3.63;;;1.20;;
60851;SDS011;48553;50.766;2.900;2023-08-30T12:36:17;3.95;;;1.40;;
60851;SDS011;48553;50.766;2.900;2023-08-30T12:39:17;3.35;;;1.10;;
60851;SDS011;48553;50.766;2.900;2023-08-30T12:42:18;3.22;;;1.05;;
60851;SDS011;48553;50.766;2.900;2023-08-30T12:45:19;2.97;;;1.40;;
60851;SDS011;48553;50.766;2.900;2023-08-30T12:48:19;3.33;;;1.20;;
60851;SDS011;48553;50.766;2.900;2023-08-30T12:51:20;3.90;;;1.40;;
60851;SDS011;48553;50.766;2.900;2023-08-30T12:54:20;4.72;;;1.45;;
60851;SDS011;48553;50.766;2.900;2023-08-30T12:57:21;4.40;;;1.25;;
60851;SDS011;48553;50.766;2.900;2023-08-30T13:00:22;2.88;;;0.95;;
60851;SDS011;48553;50.766;2.900;2023-08-30T13:03:22;4.35;;;1.83;;
60851;SDS011;48553;50.766;2.900;2023-08-30T13:06:23;2.47;;;1.17;;
60851;SDS011;48553;50.766;2.900;2023-08-30T13:09:23;6.25;;;1.00;;
60851;SDS011;48553;50.766;2.900;2023-08-30T13:12:24;5.10;;;1.17;;
60851;SDS011;48553;50.766;2.900;2023-08-30T13:15:24;5.55;;;1.08;;
60851;SDS011;48553;50.766;2.900;2023-08-30T13:18:26;3.70;;;1.17;;
60851;SDS011;48553;50.766;2.900;2023-08-30T13:21:27;1.88;;;0.90;;
60851;SDS011;48553;50.766;2.900;2023-08-30T13:24:27;2.25;;;1.00;;
60851;SDS011;48553;50.766;2.900;2023-08-30T13:27:27;3.13;;;0.98;;
60851;SDS011;48553;50.766;2.900;2023-08-30T13:30:28;4.57;;;1.10;;
60851;SDS011;48553;50.766;2.900;2023-08-30T13:33:28;3.88;;;1.00;;
60851;SDS011;48553;50.766;2.900;2023-08-30T13:36:29;3.20;;;1.05;;
60851;SDS011;48553;50.766;2.900;2023-08-30T13:39:29;3.97;;;1.10;;
60851;SDS011;48553;50.766;2.900;2023-08-30T13:42:30;5.25;;;1.20;;
60851;SDS011;48553;50.766;2.900;2023-08-30T13:45:31;2.45;;;0.90;;
60851;SDS011;48553;50.766;2.900;2023-08-30T13:48:32;3.47;;;1.23;;
60851;SDS011;48553;50.766;2.900;2023-08-30T13:51:32;5.38;;;1.38;;
60851;SDS011;48553;50.766;2.900;2023-08-30T13:54:33;5.20;;;1.20;;
60851;SDS011;48553;50.766;2.900;2023-08-30T13:57:34;4.32;;;1.42;;
60851;SDS011;48553;50.766;2.900;2023-08-30T14:00:34;3.58;;;1.02;;
60851;SDS011;48553;50.766;2.900;2023-08-30T14:03:35;3.92;;;1.40;;
60851;SDS011;48553;50.766;2.900;2023-08-30T14:06:35;3.38;;;1.00;;
60851;SDS011;48553;50.766;2.900;2023-08-30T14:09:35;3.28;;;0.88;;
60851;SDS011;48553;50.766;2.900;2023-08-30T14:12:36;4.53;;;0.93;;
60851;SDS011;48553;50.766;2.900;2023-08-30T14:15:36;3.53;;;0.98;;
60851;SDS011;48553;50.766;2.900;2023-08-30T14:18:37;3.88;;;1.10;;
60851;SDS011;48553;50.766;2.900;2023-08-30T14:21:37;4.15;;;1.10;;
60851;SDS011;48553;50.766;2.900;2023-08-30T14:24:38;3.30;;;1.00;;
60851;SDS011;48553;50.766;2.900;2023-08-30T14:27:39;3.15;;;0.80;;
60851;SDS011;48553;50.766;2.900;2023-08-30T14:30:39;4.53;;;1.10;;
60851;SDS011;48553;50.766;2.900;2023-08-30T14:33:42;3.67;;;1.20;;
60851;SDS011;48553;50.766;2.900;2023-08-30T14:36:46;4.80;;;1.40;;
60851;SDS011;48553;50.766;2.900;2023-08-30T14:39:48;3.17;;;1.20;;
60851;SDS011;48553;50.766;2.900;2023-08-30T14:42:48;4.43;;;1.33;;
60851;SDS011;48553;50.766;2.900;2023-08-30T14:45:49;6.95;;;1.65;;
60851;SDS011;48553;50.766;2.900;2023-08-30T14:48:49;3.47;;;1.40;;
60851;SDS011;48553;50.766;2.900;2023-08-30T14:51:49;6.55;;;1.60;;
60851;SDS011;48553;50.766;2.900;2023-08-30T14:54:50;4.35;;;1.30;;
60851;SDS011;48553;50.766;2.900;2023-08-30T14:57:50;4.10;;;1.52;;
60851;SDS011;48553;50.766;2.900;2023-08-30T15:00:51;4.60;;;1.50;;
60851;SDS011;48553;50.766;2.900;2023-08-30T15:03:51;4.88;;;1.73;;
60851;SDS011;48553;50.766;2.900;2023-08-30T15:06:51;4.90;;;1.60;;
60851;SDS011;48553;50.766;2.900;2023-08-30T15:09:52;3.70;;;1.42;;
60851;SDS011;48553;50.766;2.900;2023-08-30T15:12:52;4.15;;;1.48;;
60851;SDS011;48553;50.766;2.900;2023-08-30T15:15:52;3.55;;;1.23;;
60851;SDS011;48553;50.766;2.900;2023-08-30T15:18:54;3.85;;;1.33;;
60851;SDS011;48553;50.766;2.900;2023-08-30T15:22:09;5.00;;;1.30;;
60851;SDS011;48553;50.766;2.900;2023-08-30T15:25:10;3.60;;;1.38;;
60851;SDS011;48553;50.766;2.900;2023-08-30T15:28:10;4.53;;;1.38;;
60851;SDS011;48553;50.766;2.900;2023-08-30T15:31:11;3.70;;;1.33;;
60851;SDS011;48553;50.766;2.900;2023-08-30T15:34:11;4.85;;;1.30;;
60851;SDS011;48553;50.766;2.900;2023-08-30T15:37:12;4.15;;;1.50;;
60851;SDS011;48553;50.766;2.900;2023-08-30T15:40:13;3.25;;;1.10;;
60851;SDS011;48553;50.766;2.900;2023-08-30T15:43:13;4.05;;;1.33;;
60851;SDS011;48553;50.766;2.900;2023-08-30T15:46:14;3.95;;;1.35;;
60851;SDS011;48553;50.766;2.900;2023-08-30T15:49:14;3.42;;;1.38;;
60851;SDS011;48553;50.766;2.900;2023-08-30T15:52:14;4.70;;;1.40;;
60851;SDS011;48553;50.766;2.900;2023-08-30T15:55:15;2.38;;;1.20;;
60851;SDS011;48553;50.766;2.900;2023-08-30T15:58:15;3.28;;;1.30;;
60851;SDS011;48553;50.766;2.900;2023-08-30T16:01:17;4.65;;;1.60;;
60851;SDS011;48553;50.766;2.900;2023-08-30T16:04:19;5.50;;;1.20;;
60851;SDS011;48553;50.766;2.900;2023-08-30T16:07:20;2.35;;;1.30;;
60851;SDS011;48553;50.766;2.900;2023-08-30T16:10:20;5.10;;;1.67;;
60851;SDS011;48553;50.766;2.900;2023-08-30T16:13:21;5.10;;;1.48;;
60851;SDS011;48553;50.766;2.900;2023-08-30T16:16:21;4.43;;;1.70;;
60851;SDS011;48553;50.766;2.900;2023-08-30T16:19:22;3.75;;;1.40;;
60851;SDS011;48553;50.766;2.900;2023-08-30T16:22:24;2.95;;;1.30;;
60851;SDS011;48553;50.766;2.900;2023-08-30T16:25:24;4.47;;;1.70;;
60851;SDS011;48553;50.766;2.900;2023-08-30T16:28:27;4.85;;;1.33;;
60851;SDS011;48553;50.766;2.900;2023-08-30T16:31:27;5.30;;;1.50;;
60851;SDS011;48553;50.766;2.900;2023-08-30T16:34:28;6.22;;;1.40;;
60851;SDS011;48553;50.766;2.900;2023-08-30T16:37:29;2.55;;;1.25;;
60851;SDS011;48553;50.766;2.900;2023-08-30T16:40:29;5.32;;;1.38;;
60851;SDS011;48553;50.766;2.900;2023-08-30T16:43:30;3.17;;;1.23;;
60851;SDS011;48553;50.766;2.900;2023-08-30T16:46:32;4.68;;;1.20;;
60851;SDS011;48553;50.766;2.900;2023-08-30T16:49:34;4.15;;;1.10;;
60851;SDS011;48553;50.766;2.900;2023-08-30T16:52:35;3.95;;;1.20;;
60851;SDS011;48553;50.766;2.900;2023-08-30T16:55:35;5.30;;;1.27;;
60851;SDS011;48553;50.766;2.900;2023-08-30T16:58:36;4.68;;;1.20;;
60851;SDS011;48553;50.766;2.900;2023-08-30T17:01:36;3.80;;;1.27;;
60851;SDS011;48553;50.766;2.900;2023-08-30T17:04:36;3.40;;;1.17;;
60851;SDS011;48553;50.766;2.900;2023-08-30T17:07:37;4.97;;;1.40;;
60851;SDS011;48553;50.766;2.900;2023-08-30T17:10:37;4.13;;;1.40;;
60851;SDS011;48553;50.766;2.900;2023-08-30T17:13:38;4.65;;;1.30;;
60851;SDS011;48553;50.766;2.900;2023-08-30T17:16:38;3.45;;;1.30;;
60851;SDS011;48553;50.766;2.900;2023-08-30T17:19:38;3.92;;;1.13;;
60851;SDS011;48553;50.766;2.900;2023-08-30T17:22:39;4.13;;;1.30;;
60851;SDS011;48553;50.766;2.900;2023-08-30T17:25:39;6.00;;;1.10;;
60851;SDS011;48553;50.766;2.900;2023-08-30T17:28:40;4.32;;;1.20;;
60851;SDS011;48553;50.766;2.900;2023-08-30T17:31:43;3.65;;;1.20;;
60851;SDS011;48553;50.766;2.900;2023-08-30T17:34:44;3.72;;;1.30;;
60851;SDS011;48553;50.766;2.900;2023-08-30T17:37:47;1.83;;;1.07;;
60851;SDS011;48553;50.766;2.900;2023-08-30T17:40:48;4.97;;;1.38;;
60851;SDS011;48553;50.766;2.900;2023-08-30T17:43:48;4.68;;;1.20;;
60851;SDS011;48553;50.766;2.900;2023-08-30T17:46:49;5.45;;;1.20;;
60851;SDS011;48553;50.766;2.900;2023-08-30T17:49:50;6.70;;;1.40;;
60851;SDS011;48553;50.766;2.900;2023-08-30T17:52:51;3.63;;;1.13;;
60851;SDS011;48553;50.766;2.900;2023-08-30T17:55:56;4.38;;;1.20;;
60851;SDS011;48553;50.766;2.900;2023-08-30T17:58:57;3.88;;;1.38;;
60851;SDS011;48553;50.766;2.900;2023-08-30T18:01:58;4.28;;;1.23;;
60851;SDS011;48553;50.766;2.900;2023-08-30T18:04:58;5.72;;;1.50;;
60851;SDS011;48553;50.766;2.900;2023-08-30T18:07:59;4.65;;;1.48;;
60851;SDS011;48553;50.766;2.900;2023-08-30T18:11:01;5.00;;;1.20;;
60851;SDS011;48553;50.766;2.900;2023-08-30T18:14:01;3.42;;;1.17;;